Time;durP1;ratioP1;P1;durP2;ratioP2;P2;SDS_P1;SDS_P2;PMS_P1;PMS_P2;Temp;Humidity;BMP_temperature;BMP_pressure;BME280_temperature;BME280_humidity;BME280_pressure;Samples;Min_cycle;Max_cycle;Signal;HPM_P1;HPM_P2
2022/08/30 00:02:19;;;;;;;5.03;3.43;;;16.90;99.90;;;;;;5053581;28;21030;-79
2022/08/30 00:04:46;;;;;;;4.03;3.03;;;16.90;99.90;;;;;;5053566;28;20487;-79
2022/08/30 00:07:13;;;;;;;5.33;3.70;;;16.90;99.90;;;;;;5066466;28;20988;-79
2022/08/30 00:09:41;;;;;;;5.93;3.63;;;16.80;99.90;;;;;;5062671;28;20432;-79
2022/08/30 00:12:08;;;;;;;8.30;3.50;;;16.80;99.90;;;;;;5050125;28;20482;-79
2022/08/30 00:14:35;;;;;;;8.03;3.43;;;16.70;99.90;;;;;;5066165;28;20464;-79
2022/08/30 00:17:01;;;;;;;5.77;2.90;;;16.70;99.90;;;;;;5071553;28;20448;-79
2022/08/30 00:19:28;;;;;;;8.30;3.50;;;16.70;99.90;;;;;;5069262;28;20423;-79
2022/08/30 00:21:54;;;;;;;6.27;3.60;;;16.60;99.90;;;;;;5052123;28;20481;-79
2022/08/30 00:24:21;;;;;;;5.83;3.40;;;16.60;99.90;;;;;;5065903;28;20970;-79
2022/08/30 00:26:49;;;;;;;7.00;3.10;;;16.50;99.90;;;;;;5053873;28;20450;-79
2022/08/30 00:29:16;;;;;;;8.83;3.43;;;16.50;99.90;;;;;;5067707;28;20444;-79
2022/08/30 00:31:42;;;;;;;5.00;3.43;;;16.40;99.90;;;;;;5051886;28;20870;-79
2022/08/30 00:34:09;;;;;;;5.03;3.50;;;16.40;99.90;;;;;;5052264;28;20520;-79
2022/08/30 00:36:36;;;;;;;5.27;3.50;;;16.30;99.90;;;;;;5064359;28;20502;-79
2022/08/30 00:39:03;;;;;;;7.27;3.73;;;16.30;99.90;;;;;;5059388;28;20464;-79
2022/08/30 00:41:29;;;;;;;4.83;3.27;;;16.40;99.90;;;;;;5061329;28;20416;-79
2022/08/30 00:43:58;;;;;;;5.90;2.93;;;16.40;99.90;;;;;;5048162;28;20516;-79
2022/08/30 00:46:24;;;;;;;9.47;3.23;;;16.30;99.90;;;;;;5047362;28;20449;-80
2022/08/30 00:48:51;;;;;;;6.40;3.40;;;16.30;99.90;;;;;;5053170;28;20432;-79
2022/08/30 00:51:20;;;;;;;3.90;3.43;;;16.30;99.90;;;;;;5055274;28;20531;-79
2022/08/30 00:53:50;;;;;;;5.10;3.10;;;16.30;99.90;;;;;;5063227;28;20867;-79
2022/08/30 00:56:18;;;;;;;6.33;3.40;;;16.30;99.90;;;;;;5045071;28;20436;-79
2022/08/30 00:58:48;;;;;;;8.87;3.33;;;16.20;99.90;;;;;;5068286;28;20427;-79
2022/08/30 01:01:16;;;;;;;7.73;3.20;;;16.20;99.90;;;;;;5058419;28;20836;-79
2022/08/30 01:03:44;;;;;;;4.93;3.20;;;16.20;99.90;;;;;;5051361;28;20492;-79
2022/08/30 01:06:12;;;;;;;9.50;3.03;;;16.10;99.90;;;;;;5055483;28;20449;-79
2022/08/30 01:08:39;;;;;;;6.53;3.40;;;16.10;99.90;;;;;;5063462;28;20464;-79
2022/08/30 01:11:06;;;;;;;4.10;3.30;;;16.10;99.90;;;;;;5057043;28;20483;-79
2022/08/30 01:13:34;;;;;;;6.10;3.20;;;16.10;99.90;;;;;;5065685;28;20488;-79
2022/08/30 01:16:02;;;;;;;6.37;2.73;;;16.10;99.90;;;;;;5069714;28;20457;-79
2022/08/30 01:18:31;;;;;;;4.37;3.30;;;16.10;99.90;;;;;;5058023;28;20436;-79
2022/08/30 01:21:05;;;;;;;6.10;3.03;;;16.10;99.90;;;;;;5052005;28;20464;-79
2022/08/30 01:23:35;;;;;;;4.17;3.10;;;15.90;99.90;;;;;;5051962;28;20472;-79
2022/08/30 01:26:04;;;;;;;6.87;3.30;;;16.10;99.90;;;;;;5066690;28;20456;-80
2022/08/30 01:28:32;;;;;;;7.00;3.70;;;16.10;99.90;;;;;;5049239;28;20456;-79
2022/08/30 01:30:59;;;;;;;7.27;3.30;;;16.00;99.90;;;;;;5054662;28;20499;-79
2022/08/30 01:33:25;;;;;;;7.67;3.30;;;16.00;99.90;;;;;;5053050;28;20473;-79
2022/08/30 01:35:55;;;;;;;3.80;3.40;;;16.00;99.90;;;;;;5067243;28;20498;-79
2022/08/30 01:38:23;;;;;;;4.40;3.33;;;16.00;99.90;;;;;;5052798;28;20442;-79
2022/08/30 01:40:58;;;;;;;5.00;3.20;;;16.00;99.90;;;;;;5055887;28;20457;-79
2022/08/30 01:43:25;;;;;;;6.23;3.20;;;15.90;99.90;;;;;;5052638;28;20438;-80
2022/08/30 01:45:52;;;;;;;6.23;3.60;;;15.90;99.90;;;;;;5063403;28;20476;-79
2022/08/30 01:48:20;;;;;;;7.67;3.33;;;15.90;99.90;;;;;;5059694;28;20861;-79
2022/08/30 01:50:48;;;;;;;12.50;3.20;;;15.80;99.90;;;;;;5050869;28;20810;-78
2022/08/30 01:53:14;;;;;;;6.53;3.60;;;15.80;99.90;;;;;;5057931;28;20476;-79
2022/08/30 01:55:42;;;;;;;3.43;3.13;;;15.80;99.90;;;;;;5070876;28;20940;-79
2022/08/30 01:58:10;;;;;;;5.87;3.90;;;15.70;99.90;;;;;;5069362;28;20460;-79
2022/08/30 02:00:37;;;;;;;5.80;3.40;;;15.70;99.90;;;;;;5052073;28;20449;-79
2022/08/30 02:03:04;;;;;;;6.80;3.57;;;15.60;99.90;;;;;;5057777;28;21000;-79
2022/08/30 02:05:31;;;;;;;10.67;4.23;;;15.60;99.90;;;;;;5050942;28;20499;-79
2022/08/30 02:07:58;;;;;;;6.70;3.40;;;15.60;99.90;;;;;;5070307;28;20543;-80
2022/08/30 02:10:25;;;;;;;7.60;3.50;;;15.50;99.90;;;;;;5066952;28;20454;-79
2022/08/30 02:12:52;;;;;;;6.70;3.50;;;15.50;99.90;;;;;;5061078;28;20476;-79
2022/08/30 02:15:20;;;;;;;6.97;3.47;;;15.50;99.90;;;;;;5074454;28;20536;-80
2022/08/30 02:17:47;;;;;;;11.80;3.40;;;15.40;99.90;;;;;;5060342;28;20452;-80
2022/08/30 02:20:13;;;;;;;6.37;3.63;;;15.40;99.90;;;;;;5069865;28;20461;-79
2022/08/30 02:22:40;;;;;;;7.70;3.63;;;15.40;99.90;;;;;;5072850;28;20463;-79
2022/08/30 02:25:08;;;;;;;7.57;4.17;;;15.40;99.90;;;;;;5074457;28;20473;-79
2022/08/30 02:27:35;;;;;;;10.50;4.70;;;15.40;99.90;;;;;;5054935;28;20423;-79
2022/08/30 02:30:04;;;;;;;7.10;3.30;;;15.40;99.90;;;;;;5062583;28;20502;-79
2022/08/30 02:32:32;;;;;;;13.67;4.03;;;15.40;99.90;;;;;;5062509;28;20472;-79
2022/08/30 02:34:58;;;;;;;6.97;3.40;;;15.30;99.90;;;;;;5061812;28;20507;-78
2022/08/30 02:37:25;;;;;;;6.90;4.00;;;15.30;99.90;;;;;;5054947;28;20875;-79
2022/08/30 02:39:52;;;;;;;5.87;3.77;;;15.30;99.90;;;;;;5057497;28;20449;-80
2022/08/30 02:42:19;;;;;;;8.93;3.67;;;15.30;99.90;;;;;;5057464;28;20554;-79
2022/08/30 02:44:45;;;;;;;4.43;3.40;;;15.30;99.90;;;;;;5064705;28;20424;-79
2022/08/30 02:47:12;;;;;;;8.80;4.10;;;15.30;99.90;;;;;;5054287;28;20448;-79
2022/08/30 02:49:40;;;;;;;5.37;3.70;;;15.30;99.90;;;;;;5054478;28;20449;-80
2022/08/30 02:52:06;;;;;;;7.57;3.53;;;15.30;99.90;;;;;;5054763;28;20477;-80
2022/08/30 02:54:34;;;;;;;5.80;3.40;;;15.30;99.90;;;;;;5070966;28;20544;-78
2022/08/30 02:57:03;;;;;;;4.10;3.40;;;15.20;99.90;;;;;;5054798;28;20491;-79
2022/08/30 02:59:31;;;;;;;5.17;3.23;;;15.30;99.90;;;;;;5068561;28;20430;-79
2022/08/30 03:01:57;;;;;;;5.40;3.47;;;15.30;99.90;;;;;;5072431;28;20478;-80
2022/08/30 03:04:25;;;;;;;9.90;3.50;;;15.30;99.90;;;;;;5071754;28;20493;-79
2022/08/30 03:06:53;;;;;;;6.60;3.80;;;15.30;99.90;;;;;;5055839;28;20950;-79
2022/08/30 03:09:19;;;;;;;5.40;3.77;;;15.40;99.90;;;;;;5068082;28;20452;-79
2022/08/30 03:11:46;;;;;;;5.03;3.73;;;15.40;99.90;;;;;;5061656;28;20481;-79
2022/08/30 03:14:13;;;;;;;10.80;3.47;;;15.40;99.90;;;;;;5053429;28;21051;-79
2022/08/30 03:16:39;;;;;;;8.50;3.33;;;15.40;99.90;;;;;;5073057;28;20443;-79
2022/08/30 03:19:06;;;;;;;3.93;3.10;;;15.40;99.90;;;;;;5057937;28;20464;-79
2022/08/30 03:21:32;;;;;;;11.47;3.73;;;15.40;99.90;;;;;;5062217;28;20495;-80
2022/08/30 03:24:00;;;;;;;8.20;3.63;;;15.40;99.90;;;;;;5067889;28;20498;-79
2022/08/30 03:26:27;;;;;;;7.40;3.37;;;15.50;99.90;;;;;;5052919;28;20862;-79
2022/08/30 03:28:54;;;;;;;6.03;3.47;;;15.50;99.90;;;;;;5062940;28;20464;-78
2022/08/30 03:31:20;;;;;;;5.67;3.70;;;15.50;99.90;;;;;;5073105;28;20505;-79
2022/08/30 03:33:47;;;;;;;13.10;3.87;;;15.50;99.90;;;;;;5062864;28;20477;-79
2022/08/30 03:36:14;;;;;;;5.50;4.20;;;15.50;99.90;;;;;;5054353;28;20893;-80
2022/08/30 03:38:40;;;;;;;7.23;4.13;;;15.50;99.90;;;;;;5056074;28;20521;-79
2022/08/30 03:41:08;;;;;;;5.90;4.03;;;15.50;99.90;;;;;;5055788;28;20509;-78
2022/08/30 03:43:35;;;;;;;8.00;3.80;;;15.50;99.90;;;;;;5067072;28;20528;-79
2022/08/30 03:46:02;;;;;;;7.20;3.77;;;15.50;99.90;;;;;;5053294;28;20895;-79
2022/08/30 03:48:29;;;;;;;5.90;4.13;;;15.50;99.90;;;;;;5045529;28;20454;-79
2022/08/30 03:50:57;;;;;;;11.30;4.47;;;15.50;99.90;;;;;;5058115;28;20497;-77
2022/08/30 03:53:24;;;;;;;7.30;4.00;;;15.60;99.90;;;;;;5056307;28;20481;-79
2022/08/30 03:55:50;;;;;;;4.80;4.30;;;15.60;99.90;;;;;;5044925;28;20890;-79
2022/08/30 03:58:18;;;;;;;7.27;4.50;;;15.60;99.90;;;;;;5053376;28;20514;-79
2022/08/30 04:00:45;;;;;;;5.87;3.80;;;15.50;99.90;;;;;;5061351;28;20452;-79
2022/08/30 04:03:12;;;;;;;9.33;4.43;;;15.50;99.90;;;;;;5054514;28;20466;-79
2022/08/30 04:05:38;;;;;;;8.20;4.50;;;15.50;99.90;;;;;;5061657;28;20510;-79
2022/08/30 04:08:05;;;;;;;9.73;4.60;;;15.50;99.90;;;;;;5058707;28;20942;-79
2022/08/30 04:10:34;;;;;;;8.40;4.30;;;15.50;99.90;;;;;;5053039;28;20453;-79
2022/08/30 04:13:00;;;;;;;5.93;4.00;;;15.40;99.90;;;;;;5053243;28;20584;-79
2022/08/30 04:15:28;;;;;;;10.30;4.83;;;15.40;99.90;;;;;;5056737;28;20543;-79
2022/08/30 04:17:55;;;;;;;5.67;4.17;;;15.40;99.90;;;;;;5050001;28;20452;-79
2022/08/30 04:20:22;;;;;;;6.77;4.50;;;15.40;99.90;;;;;;5072290;28;20457;-80
2022/08/30 04:22:48;;;;;;;6.50;4.07;;;15.40;99.90;;;;;;5056081;28;20480;-78
2022/08/30 04:25:16;;;;;;;7.20;4.23;;;15.30;99.90;;;;;;5058062;28;20453;-78
2022/08/30 04:27:44;;;;;;;5.40;4.37;;;15.30;99.90;;;;;;5050877;28;20453;-78
2022/08/30 04:30:12;;;;;;;6.80;4.23;;;15.30;99.90;;;;;;5057790;28;20489;-78
2022/08/30 04:32:40;;;;;;;8.33;4.43;;;15.30;99.90;;;;;;5049658;28;20552;-79
2022/08/30 04:35:07;;;;;;;8.97;5.00;;;15.30;99.90;;;;;;5051277;28;20454;-79
2022/08/30 04:37:34;;;;;;;6.23;4.30;;;15.20;99.90;;;;;;5061327;28;20464;-79
2022/08/30 04:40:01;;;;;;;6.20;4.50;;;15.30;99.90;;;;;;5061304;28;20794;-79
2022/08/30 04:42:30;;;;;;;7.23;4.40;;;15.30;99.90;;;;;;5058811;28;20537;-79
2022/08/30 04:44:56;;;;;;;7.17;4.97;;;15.20;99.90;;;;;;5059023;28;20453;-80
2022/08/30 04:47:23;;;;;;;9.33;5.00;;;15.20;99.90;;;;;;5056312;28;20825;-79
2022/08/30 04:49:52;;;;;;;9.13;5.03;;;15.20;99.90;;;;;;5055997;28;20453;-79
2022/08/30 04:52:19;;;;;;;11.33;4.23;;;15.20;99.90;;;;;;5062556;28;20480;-79
2022/08/30 04:54:45;;;;;;;6.90;4.50;;;15.20;99.90;;;;;;5064401;28;20912;-80
2022/08/30 04:57:12;;;;;;;10.77;4.43;;;15.20;99.90;;;;;;5072768;28;20449;-77
2022/08/30 04:59:39;;;;;;;8.30;4.43;;;15.30;99.90;;;;;;5061864;28;20453;-77
2022/08/30 05:02:06;;;;;;;8.67;4.43;;;15.30;99.90;;;;;;5053716;28;20477;-77
2022/08/30 05:04:32;;;;;;;11.63;4.83;;;15.40;99.90;;;;;;5056039;28;20450;-77
2022/08/30 05:07:00;;;;;;;5.93;4.30;;;15.50;99.90;;;;;;5053550;28;20487;-77
2022/08/30 05:09:27;;;;;;;10.27;4.50;;;15.70;99.90;;;;;;5049296;28;20502;-77
2022/08/30 05:11:53;;;;;;;12.53;5.20;;;15.80;99.90;;;;;;5064157;28;20516;-77
2022/08/30 05:14:20;;;;;;;5.63;4.00;;;15.90;99.90;;;;;;5073174;28;20522;-77
2022/08/30 05:16:47;;;;;;;8.00;4.53;;;16.00;99.90;;;;;;5064955;28;20458;-77
2022/08/30 05:19:13;;;;;;;11.57;5.80;;;16.00;99.90;;;;;;5054865;28;20424;-77
2022/08/30 05:21:40;;;;;;;7.27;4.60;;;16.10;99.90;;;;;;5050769;28;20453;-76
2022/08/30 05:24:08;;;;;;;8.87;3.90;;;16.30;99.90;;;;;;5063901;28;20452;-74
2022/08/30 05:26:37;;;;;;;11.53;4.80;;;16.40;99.90;;;;;;5051813;28;20842;-74
2022/08/30 05:29:04;;;;;;;12.00;4.47;;;16.60;99.90;;;;;;5053947;28;20449;-75
2022/08/30 05:31:33;;;;;;;7.73;4.27;;;16.80;99.90;;;;;;5052294;28;20449;-74
2022/08/30 05:34:00;;;;;;;11.60;5.07;;;17.00;99.90;;;;;;5051104;28;20953;-76
2022/08/30 05:36:29;;;;;;;12.83;4.80;;;17.10;99.90;;;;;;5050867;28;20514;-75
2022/08/30 05:38:57;;;;;;;11.63;4.47;;;17.30;99.90;;;;;;5050965;28;20468;-75
2022/08/30 05:41:25;;;;;;;7.87;4.80;;;17.60;99.90;;;;;;5053351;28;22190;-75
2022/08/30 05:43:53;;;;;;;11.23;4.67;;;17.80;99.90;;;;;;5059392;28;20432;-75
2022/08/30 05:46:20;;;;;;;8.40;4.87;;;18.00;99.90;;;;;;5050949;28;20648;-75
2022/08/30 05:48:48;;;;;;;6.67;4.23;;;18.20;99.90;;;;;;5051241;28;20465;-75
2022/08/30 05:51:18;;;;;;;12.37;4.17;;;18.40;99.90;;;;;;5052493;28;20444;-74
2022/08/30 05:53:45;;;;;;;7.37;4.10;;;18.60;99.90;;;;;;5067031;28;20812;-74
2022/08/30 05:56:14;;;;;;;11.00;4.83;;;18.80;99.90;;;;;;5046925;28;21007;-74
2022/08/30 05:58:43;;;;;;;9.13;4.73;;;19.00;99.90;;;;;;5046500;28;20424;-74
2022/08/30 06:01:19;;;;;;;9.60;4.67;;;19.30;99.90;;;;;;5046954;28;22044;-74
2022/08/30 06:03:46;;;;;;;10.40;4.30;;;19.60;99.90;;;;;;5046305;28;20441;-74
2022/08/30 06:06:12;;;;;;;11.73;4.40;;;19.80;99.90;;;;;;5045731;28;20495;-74
2022/08/30 06:08:39;;;;;;;12.47;5.00;;;20.00;99.90;;;;;;5046746;28;20853;-74
2022/08/30 06:11:06;;;;;;;6.47;4.33;;;20.10;99.90;;;;;;5046735;28;20467;-74
2022/08/30 06:13:32;;;;;;;7.60;5.00;;;20.20;99.90;;;;;;5046613;28;20470;-74
2022/08/30 06:16:01;;;;;;;5.00;4.47;;;20.50;99.90;;;;;;5047596;28;20485;-73
2022/08/30 06:18:28;;;;;;;9.03;4.80;;;20.70;99.90;;;;;;5047373;28;20457;-73
2022/08/30 06:20:55;;;;;;;7.73;5.17;;;21.00;99.90;;;;;;5046709;28;20931;-73
2022/08/30 06:23:21;;;;;;;6.77;3.90;;;21.20;99.90;;;;;;5046615;28;20475;-74
2022/08/30 06:25:48;;;;;;;14.37;5.33;;;21.30;99.90;;;;;;5046818;28;20919;-75
2022/08/30 06:28:15;;;;;;;11.50;5.10;;;21.50;99.90;;;;;;5046941;28;20493;-76
2022/08/30 06:30:42;;;;;;;11.10;4.77;;;21.70;99.90;;;;;;5047936;28;20515;-74
2022/08/30 06:33:10;;;;;;;6.63;4.67;;;21.70;99.90;;;;;;5047512;28;20479;-74
2022/08/30 06:35:38;;;;;;;7.40;4.53;;;21.30;99.90;;;;;;5046525;28;20550;-73
2022/08/30 06:38:05;;;;;;;7.50;4.90;;;20.80;99.90;;;;;;5045111;28;20432;-76
2022/08/30 06:40:31;;;;;;;10.17;5.67;;;20.50;99.90;;;;;;5045331;28;20445;-74
2022/08/30 06:42:58;;;;;;;7.20;4.73;;;20.40;99.90;;;;;;5045506;28;20473;-73
2022/08/30 06:45:25;;;;;;;9.07;4.63;;;20.30;99.90;;;;;;5043099;28;20428;-74
2022/08/30 06:47:51;;;;;;;8.00;4.70;;;20.40;99.90;;;;;;5046113;28;20453;-75
2022/08/30 06:50:19;;;;;;;9.50;5.00;;;20.80;99.90;;;;;;5045759;28;20456;-75
2022/08/30 06:52:46;;;;;;;5.43;4.40;;;21.10;99.90;;;;;;5045793;28;20983;-75
2022/08/30 06:55:15;;;;;;;6.10;4.17;;;21.40;99.90;;;;;;5047709;28;20538;-74
2022/08/30 06:57:41;;;;;;;9.70;4.87;;;21.70;99.90;;;;;;5049877;28;20419;-76
2022/08/30 07:00:11;;;;;;;9.33;4.10;;;22.00;99.90;;;;;;5047045;28;20452;-75
2022/08/30 07:02:38;;;;;;;9.93;4.80;;;22.30;99.90;;;;;;5049124;28;20477;-76
2022/08/30 07:05:06;;;;;;;8.60;4.47;;;22.20;99.90;;;;;;5046830;28;20499;-75
2022/08/30 07:07:35;;;;;;;9.50;4.30;;;21.80;99.90;;;;;;5049827;28;20451;-76
2022/08/30 07:10:03;;;;;;;9.97;4.80;;;21.50;99.90;;;;;;5049547;28;21206;-75
2022/08/30 07:12:30;;;;;;;10.50;5.50;;;21.20;99.90;;;;;;5049649;28;20473;-76
2022/08/30 07:14:57;;;;;;;8.33;4.70;;;20.90;99.90;;;;;;5049625;28;21804;-76
2022/08/30 07:20:09;;;;;;;8.97;4.60;;;20.60;99.90;;;;;;5048829;28;20951;-75
2022/08/30 07:22:37;;;;;;;10.37;4.90;;;20.40;99.90;;;;;;5050006;28;21046;-73
2022/08/30 07:25:04;;;;;;;6.60;4.73;;;20.40;99.90;;;;;;5049223;28;20956;-75
2022/08/30 07:27:31;;;;;;;10.90;4.50;;;20.30;99.90;;;;;;5049650;28;20572;-73
2022/08/30 07:29:59;;;;;;;6.13;4.93;;;20.30;99.90;;;;;;5048487;28;20457;-73
2022/08/30 07:32:26;;;;;;;11.50;5.00;;;20.30;99.90;;;;;;5048306;28;20560;-73
2022/08/30 07:34:53;;;;;;;8.80;5.30;;;20.20;99.90;;;;;;5050652;28;20430;-74
2022/08/30 07:37:20;;;;;;;10.20;5.60;;;20.20;99.90;;;;;;5048072;28;20520;-73
2022/08/30 07:39:47;;;;;;;12.57;5.30;;;20.00;99.90;;;;;;5049075;28;20454;-73
2022/08/30 07:42:14;;;;;;;10.40;5.33;;;19.90;99.90;;;;;;5048647;28;20543;-75
2022/08/30 07:44:41;;;;;;;12.67;5.47;;;19.80;99.90;;;;;;5048508;28;20453;-74
2022/08/30 07:47:07;;;;;;;7.50;5.10;;;19.70;99.90;;;;;;5048499;28;21252;-74
2022/08/30 07:49:36;;;;;;;17.37;5.77;;;19.60;99.90;;;;;;5048505;28;20431;-75
2022/08/30 07:52:03;;;;;;;13.53;5.20;;;19.60;99.90;;;;;;5048809;28;20451;-74
2022/08/30 07:54:30;;;;;;;11.27;5.17;;;19.70;99.90;;;;;;5048601;28;20441;-74
2022/08/30 07:56:58;;;;;;;11.90;5.30;;;19.80;99.90;;;;;;5048465;28;20539;-73
2022/08/30 07:59:25;;;;;;;13.43;5.60;;;19.90;99.90;;;;;;5047712;28;20499;-74
2022/08/30 08:01:51;;;;;;;15.53;4.97;;;20.10;99.90;;;;;;5047941;28;20512;-74
2022/08/30 08:04:19;;;;;;;14.23;5.00;;;20.20;99.90;;;;;;5048236;28;20453;-74
2022/08/30 08:06:45;;;;;;;9.13;4.93;;;20.40;99.90;;;;;;5048820;28;20449;-74
2022/08/30 08:09:12;;;;;;;8.30;4.80;;;20.50;99.90;;;;;;5049602;28;20495;-73
2022/08/30 08:11:40;;;;;;;7.87;4.73;;;20.70;99.90;;;;;;5048720;28;20458;-73
2022/08/30 08:14:08;;;;;;;15.60;5.10;;;20.90;99.90;;;;;;5048368;28;20464;-73
2022/08/30 08:16:36;;;;;;;10.60;4.60;;;21.20;99.90;;;;;;5047147;28;20492;-72
2022/08/30 08:19:07;;;;;;;11.33;4.07;;;21.50;99.90;;;;;;5047476;28;20454;-73
2022/08/30 08:21:35;;;;;;;9.97;4.53;;;21.80;99.90;;;;;;5047753;28;20469;-73
2022/08/30 08:24:02;;;;;;;8.17;4.87;;;21.90;99.90;;;;;;5048691;28;20453;-73
2022/08/30 08:26:28;;;;;;;12.60;4.90;;;22.10;99.90;;;;;;5046192;28;20446;-73
2022/08/30 08:28:55;;;;;;;8.17;4.40;;;22.20;99.90;;;;;;5048909;28;20461;-73
2022/08/30 08:31:26;;;;;;;11.30;4.30;;;22.40;99.90;;;;;;5048146;28;20526;-73
2022/08/30 08:33:53;;;;;;;11.40;4.40;;;22.60;99.90;;;;;;5048463;28;21162;-73
2022/08/30 08:36:20;;;;;;;12.53;4.90;;;22.70;99.90;;;;;;5046902;28;20485;-73
2022/08/30 08:38:47;;;;;;;9.73;4.10;;;22.80;99.90;;;;;;5046905;28;20459;-72
2022/08/30 08:41:31;;;;;;;10.23;4.23;;;22.90;99.90;;;;;;5048900;28;20460;-74
2022/08/30 08:43:58;;;;;;;6.90;4.20;;;23.00;99.90;;;;;;5048895;28;20463;-73
2022/08/30 08:46:30;;;;;;;11.90;3.93;;;23.00;99.90;;;;;;5046566;28;20457;-72
2022/08/30 08:49:01;;;;;;;11.00;3.83;;;23.10;99.90;;;;;;5048290;28;20454;-73
2022/08/30 08:54:22;;;;;;;13.53;4.60;;;23.00;99.90;;;;;;5047825;28;20512;-73
2022/08/30 08:56:48;;;;;;;9.23;4.10;;;23.10;99.90;;;;;;5046400;28;20995;-73
2022/08/30 08:59:16;;;;;;;8.63;4.43;;;23.60;99.90;;;;;;5048021;28;20892;-74
2022/08/30 09:01:46;;;;;;;10.47;4.10;;;23.90;99.90;;;;;;5046711;28;20495;-73
2022/08/30 09:04:21;;;;;;;9.93;3.53;;;24.10;99.90;;;;;;5047789;28;20453;-73
2022/08/30 09:06:54;;;;;;;11.73;4.63;;;24.40;99.90;;;;;;5047478;28;20864;-73
2022/08/30 09:09:26;;;;;;;8.03;4.20;;;24.60;99.90;;;;;;5048325;28;20985;-73
2022/08/30 09:11:53;;;;;;;6.73;3.70;;;24.60;99.90;;;;;;5046737;28;20473;-73
2022/08/30 09:14:23;;;;;;;13.13;4.13;;;24.90;99.90;;;;;;5014519;28;20481;-73
2022/08/30 09:16:59;;;;;;;11.17;3.50;;;25.40;99.90;;;;;;5025746;28;20579;-74
2022/08/30 09:19:32;;;;;;;7.87;4.07;;;25.90;99.90;;;;;;5027119;28;20450;-74
2022/08/30 09:22:00;;;;;;;9.63;3.70;;;26.40;99.90;;;;;;5026560;28;20536;-74
2022/08/30 09:24:37;;;;;;;10.20;4.50;;;26.80;99.90;;;;;;5028239;28;20451;-74
2022/08/30 09:27:15;;;;;;;10.03;3.60;;;27.10;99.90;;;;;;5027173;28;20446;-75
2022/08/30 09:29:51;;;;;;;10.40;3.10;;;27.10;99.90;;;;;;5024930;28;20531;-75
2022/08/30 09:32:26;;;;;;;8.67;3.50;;;27.20;99.90;;;;;;5026746;28;20893;-75
2022/08/30 09:34:52;;;;;;;9.60;3.70;;;27.20;99.90;;;;;;5025864;28;20511;-75
2022/08/30 09:37:30;;;;;;;10.40;3.33;;;27.20;99.90;;;;;;5026141;28;20536;-75
2022/08/30 09:39:58;;;;;;;5.60;3.33;;;27.10;99.90;;;;;;5025714;28;20880;-75
2022/08/30 09:42:27;;;;;;;8.37;3.00;;;27.40;99.90;;;;;;5026485;28;20529;-74
2022/08/30 09:45:09;;;;;;;10.10;3.60;;;27.50;98.70;;;;;;5026753;28;20481;-75
2022/08/30 09:47:39;;;;;;;11.73;3.50;;;27.70;98.10;;;;;;5026067;28;20792;-76
2022/08/30 09:50:09;;;;;;;10.57;2.80;;;27.80;97.70;;;;;;5027719;28;20458;-75
2022/08/30 09:52:44;;;;;;;5.93;2.60;;;27.80;96.50;;;;;;5027998;28;20474;-75
2022/08/30 09:55:26;;;;;;;6.40;3.33;;;27.80;96.60;;;;;;5027880;28;20461;-75
2022/08/30 09:58:00;;;;;;;10.00;3.00;;;27.60;96.50;;;;;;5027249;28;20976;-75
2022/08/30 10:00:31;;;;;;;6.57;2.83;;;27.30;97.20;;;;;;5027434;28;20509;-75
2022/08/30 10:03:29;;;;;;;6.87;3.03;;;27.20;96.40;;;;;;5026682;28;20481;-75
2022/08/30 10:06:05;;;;;;;5.57;3.13;;;27.40;96.80;;;;;;5026311;28;20446;-75
2022/08/30 10:08:45;;;;;;;4.53;2.60;;;27.70;96.40;;;;;;5027917;28;20454;-75
2022/08/30 10:11:19;;;;;;;3.90;2.93;;;28.00;96.20;;;;;;5026985;28;21051;-75
2022/08/30 10:14:14;;;;;;;5.70;2.80;;;28.30;95.60;;;;;;5027092;28;20608;-75
2022/08/30 10:16:48;;;;;;;8.23;3.13;;;28.50;94.90;;;;;;5027098;28;20485;-75
2022/08/30 10:19:28;;;;;;;5.13;2.80;;;28.40;94.00;;;;;;5027082;28;20459;-75
2022/08/30 10:21:59;;;;;;;5.03;3.03;;;28.40;95.00;;;;;;5027146;28;20485;-74
2022/08/30 10:24:31;;;;;;;8.23;3.07;;;28.40;93.10;;;;;;5025651;28;20505;-74
2022/08/30 10:27:05;;;;;;;9.83;3.07;;;28.60;93.90;;;;;;5025817;28;20485;-75
2022/08/30 10:29:38;;;;;;;11.43;2.60;;;28.60;93.60;;;;;;5029488;28;20825;-75
2022/08/30 10:32:15;;;;;;;4.07;2.27;;;28.80;92.40;;;;;;5030503;28;20494;-75
2022/08/30 10:34:47;;;;;;;11.47;2.70;;;28.70;92.00;;;;;;5031194;28;20464;-74
2022/08/30 10:37:19;;;;;;;5.23;2.77;;;28.90;91.70;;;;;;5030046;28;21144;-75
2022/08/30 10:39:48;;;;;;;4.27;2.60;;;29.10;90.30;;;;;;5031026;28;20510;-75
2022/08/30 10:42:20;;;;;;;6.50;2.90;;;29.00;90.50;;;;;;5029415;28;20472;-74
2022/08/30 10:44:52;;;;;;;4.77;2.63;;;28.90;90.80;;;;;;5030915;28;20973;-75
2022/08/30 10:47:30;;;;;;;8.13;2.73;;;29.00;90.40;;;;;;5030084;28;20449;-75
2022/08/30 10:50:04;;;;;;;11.27;2.40;;;29.20;90.10;;;;;;5030130;28;21011;-75
2022/08/30 10:52:36;;;;;;;4.93;2.80;;;29.40;88.20;;;;;;5030483;28;20905;-75
2022/08/30 10:55:09;;;;;;;4.80;2.67;;;29.40;87.90;;;;;;5031267;28;20503;-75
2022/08/30 10:57:36;;;;;;;4.10;2.70;;;29.50;87.20;;;;;;5030099;28;20477;-76
2022/08/30 11:00:07;;;;;;;7.47;2.80;;;29.60;86.60;;;;;;5030594;28;20496;-77
2022/08/30 11:03:10;;;;;;;9.13;3.00;;;29.40;86.20;;;;;;5030439;28;20475;-76
2022/08/30 11:06:14;;;;;;;7.40;2.80;;;29.40;87.50;;;;;;5030448;28;20445;-76
2022/08/30 11:09:09;;;;;;;5.87;2.60;;;29.40;88.00;;;;;;5028591;28;20458;-76
2022/08/30 11:11:51;;;;;;;4.40;2.50;;;29.30;87.40;;;;;;5030427;28;20532;-76
2022/08/30 11:14:20;;;;;;;5.53;2.67;;;29.20;86.40;;;;;;5029351;28;20860;-76
2022/08/30 11:16:50;;;;;;;8.30;3.23;;;29.20;86.20;;;;;;5029753;28;20485;-77
2022/08/30 11:19:20;;;;;;;6.60;2.90;;;29.30;87.30;;;;;;5030013;28;20557;-76
2022/08/30 11:21:50;;;;;;;6.67;3.37;;;29.40;87.70;;;;;;5028912;28;20479;-77
2022/08/30 11:24:20;;;;;;;3.33;2.83;;;29.60;86.30;;;;;;5030491;28;20447;-77
2022/08/30 11:26:59;;;;;;;4.90;2.67;;;29.60;86.20;;;;;;5030012;28;20469;-78
2022/08/30 11:29:44;;;;;;;3.60;2.73;;;29.40;86.40;;;;;;5030559;28;20454;-77
2022/08/30 11:32:23;;;;;;;5.03;2.90;;;29.30;85.80;;;;;;5028630;28;20548;-76
2022/08/30 11:34:55;;;;;;;4.53;3.50;;;29.30;85.90;;;;;;5030519;28;20860;-77
2022/08/30 11:37:37;;;;;;;7.30;3.77;;;29.40;86.90;;;;;;5029378;28;20494;-77
2022/08/30 11:40:34;;;;;;;8.85;3.38;;;29.50;87.80;;;;;;5033371;28;20449;-78
2022/08/30 11:43:38;;;;;;;5.00;3.10;;;29.50;86.90;;;;;;5035084;28;20250;-78
2022/08/30 11:46:17;;;;;;;3.90;2.90;;;29.60;87.20;;;;;;5034692;28;20914;-79
2022/08/30 11:48:53;;;;;;;5.13;3.33;;;30.00;86.00;;;;;;5031478;28;20871;-79
2022/08/30 11:51:38;;;;;;;5.90;2.90;;;30.00;85.60;;;;;;5031619;28;20489;-80
2022/08/30 11:54:17;;;;;;;4.13;3.20;;;30.00;86.40;;;;;;5037329;28;20454;-82
2022/08/30 11:56:52;;;;;;;4.40;3.10;;;30.20;86.90;;;;;;5038249;28;20498;-79
2022/08/30 11:59:30;;;;;;;6.53;3.30;;;30.50;86.00;;;;;;5029368;28;20473;-74
2022/08/30 12:01:57;;;;;;;4.90;3.60;;;30.60;85.00;;;;;;5027631;28;20478;-74
2022/08/30 12:04:36;;;;;;;4.20;3.00;;;30.40;85.40;;;;;;5029566;28;20456;-76
2022/08/30 12:07:05;;;;;;;9.00;3.30;;;30.30;85.70;;;;;;5029710;28;20965;-77
2022/08/30 12:10:03;;;;;;;3.73;3.27;;;30.30;85.90;;;;;;5029962;28;20545;-76
2022/08/30 12:12:50;;;;;;;5.20;3.20;;;30.30;86.60;;;;;;5028003;28;20604;-76
2022/08/30 12:15:56;;;;;;;4.57;3.43;;;30.60;85.70;;;;;;5028803;28;20512;-76
2022/08/30 12:18:41;;;;;;;3.37;3.07;;;30.70;85.40;;;;;;5029994;28;20484;-76
2022/08/30 12:21:25;;;;;;;5.50;3.17;;;31.00;86.10;;;;;;5028734;28;21067;-76
2022/08/30 12:23:53;;;;;;;8.83;3.47;;;31.10;84.00;;;;;;5029493;28;20473;-75
2022/08/30 12:26:31;;;;;;;4.87;3.13;;;31.00;84.50;;;;;;5028029;28;20524;-75
2022/08/30 12:29:09;;;;;;;5.30;3.83;;;31.00;84.80;;;;;;5027162;28;20993;-73
2022/08/30 12:31:40;;;;;;;6.23;3.37;;;31.10;82.90;;;;;;5028544;28;20512;-75
2022/08/30 12:34:09;;;;;;;5.77;3.40;;;31.10;82.90;;;;;;5029066;28;20450;-74
2022/08/30 12:36:39;;;;;;;6.40;3.40;;;31.10;83.00;;;;;;5026936;28;21012;-75
2022/08/30 12:39:12;;;;;;;4.87;2.90;;;31.30;83.00;;;;;;5027700;28;20975;-75
2022/08/30 12:41:40;;;;;;;5.93;3.13;;;31.30;81.60;;;;;;5028484;28;20458;-75
2022/08/30 12:44:09;;;;;;;8.93;3.47;;;31.30;82.30;;;;;;5027387;28;20461;-74
2022/08/30 12:46:36;;;;;;;8.33;3.03;;;31.20;81.50;;;;;;5028087;28;20457;-75
2022/08/30 12:49:03;;;;;;;5.30;3.20;;;31.00;82.50;;;;;;5027641;28;20434;-75
2022/08/30 12:51:41;;;;;;;6.47;3.60;;;30.90;82.10;;;;;;5027296;28;20742;-74
2022/08/30 12:54:18;;;;;;;3.87;3.43;;;30.90;81.80;;;;;;5028367;28;21018;-75
2022/08/30 12:56:48;;;;;;;5.13;3.43;;;30.70;80.70;;;;;;5028484;28;20446;-74
2022/08/30 12:59:44;;;;;;;5.63;3.30;;;30.50;81.40;;;;;;5026361;28;20450;-74
2022/08/30 13:02:14;;;;;;;4.27;3.17;;;30.60;81.70;;;;;;5027911;28;21018;-74
2022/08/30 13:04:41;;;;;;;7.23;3.60;;;30.60;81.90;;;;;;5027170;28;20861;-75
2022/08/30 13:07:09;;;;;;;5.47;2.90;;;30.80;82.10;;;;;;5027735;28;20454;-74